Home > Products > Valid Products > TAF

000
FTUS41 KALY 250520
TAFPOU
TAF
KPOU 250520Z 2506/2606 28004KT P6SM SKC
     FM251400 30009KT P6SM SCT050
     FM252300 32003KT P6SM FEW050
     FM260300 00000KT P6SM SKC=



000
FTUS41 KALY 250520
TAFPOU
TAF
KPOU 250520Z 2506/2606 28004KT P6SM SKC
     FM251400 30009KT P6SM SCT050
     FM252300 32003KT P6SM FEW050
     FM260300 00000KT P6SM SKC=



000
FTUS41 KALY 250520
TAFALB
TAF
KALB 250520Z 2506/2606 30007KT P6SM SCT060
     FM251400 30011G17KT P6SM BKN050
     FM260100 30005KT P6SM SCT050=



000
FTUS41 KALY 250520
TAFALB
TAF
KALB 250520Z 2506/2606 30007KT P6SM SCT060
     FM251400 30011G17KT P6SM BKN050
     FM260100 30005KT P6SM SCT050=



000
FTUS41 KALY 250520
TAFGFL
TAF
KGFL 250520Z 2506/2606 27004KT P6SM SCT050 BKN080
     FM250900 29003KT P6SM SCT050
     FM251400 32009KT P6SM BKN050
     FM260100 35003KT P6SM SCT050=



000
FTUS41 KALY 250520
TAFGFL
TAF
KGFL 250520Z 2506/2606 27004KT P6SM SCT050 BKN080
     FM250900 29003KT P6SM SCT050
     FM251400 32009KT P6SM BKN050
     FM260100 35003KT P6SM SCT050=



000
FTUS41 KALY 242324
TAFALB
TAF
KALB 242324Z 2500/2524 29013G22KT P6SM BKN050
     FM250400 29009KT P6SM SCT050
     FM251200 29010G20KT P6SM SCT050=



000
FTUS41 KALY 242324
TAFPOU
TAF
KPOU 242324Z 2500/2524 32010KT P6SM BKN050
     FM250300 28005KT P6SM SCT050
     FM251300 30008G18KT P6SM SCT050=



000
FTUS41 KALY 242324
TAFGFL
TAF
KGFL 242324Z 2500/2524 29008KT P6SM BKN050
     FM250600 30006KT P6SM SCT050
     FM251300 33008G18KT P6SM BKN050=



000
FTUS41 KALY 242216 AAA
TAFGFL
TAF AMD
KGFL 242216Z 2422/2518 29010G17KT P6SM VCSH BKN050
     FM250000 29008KT P6SM BKN050
     FM250600 29005KT P6SM SCT050
     FM251400 29008G18KT P6SM SCT060=



000
FTUS41 KALY 242216 AAA
TAFGFL
TAF AMD
KGFL 242216Z 2422/2518 29010G17KT P6SM VCSH BKN050
     FM250000 29008KT P6SM BKN050
     FM250600 29005KT P6SM SCT050
     FM251400 29008G18KT P6SM SCT060=



000
FTUS41 KALY 241720
TAFPOU
TAF
KPOU 241720Z 2418/2518 28010KT P6SM VCSH BKN060
      TEMPO 2418/2422 30010G20KT
     FM250300 28005KT P6SM SCT060
     FM251300 28008G18KT P6SM FEW060=



000
FTUS41 KALY 241720
TAFPOU
TAF
KPOU 241720Z 2418/2518 28010KT P6SM VCSH BKN060
      TEMPO 2418/2422 30010G20KT
     FM250300 28005KT P6SM SCT060
     FM251300 28008G18KT P6SM FEW060=



000
FTUS41 KALY 241720
TAFGFL
TAF
KGFL 241720Z 2418/2518 29010KT P6SM VCSH BKN050
      TEMPO 2418/2422 29010G20KT
     FM242300 29008KT P6SM BKN050
     FM250600 29005KT P6SM SCT050
     FM251400 29008G18KT P6SM SCT060=



000
FTUS41 KALY 241720
TAFALB
TAF
KALB 241720Z 2418/2518 29015G25KT P6SM VCSH SCT030 BKN050
     FM250000 29008G18KT P6SM BKN050
     FM250600 29008KT P6SM SCT050
     FM251200 29010G20KT P6SM SCT050=



000
FTUS41 KALY 241720
TAFALB
TAF
KALB 241720Z 2418/2518 29015G25KT P6SM VCSH SCT030 BKN050
     FM250000 29008G18KT P6SM BKN050
     FM250600 29008KT P6SM SCT050
     FM251200 29010G20KT P6SM SCT050=



000
FTUS41 KALY 241720
TAFGFL
TAF
KGFL 241720Z 2418/2518 29010KT P6SM VCSH BKN050
      TEMPO 2418/2422 29010G20KT
     FM242300 29008KT P6SM BKN050
     FM250600 29005KT P6SM SCT050
     FM251400 29008G18KT P6SM SCT060=



000
FTUS41 KALY 241340 AAA
TAFGFL
TAF AMD
KGFL 241340Z 2414/2512 VRB06KT P6SM BKN045
      TEMPO 2414/2416 29008G18KT
     FM241600 29012G20KT P6SM BKN060
     FM242300 28007KT P6SM BKN050
     FM250800 25004KT P6SM SCT050=



000
FTUS41 KALY 241120
TAFGFL
TAF
KGFL 241120Z 2412/2512 25008KT P6SM BKN045
     FM241300 29012G20KT P6SM BKN060
     FM242300 28007KT P6SM BKN050
     FM250800 25004KT P6SM SCT050=



000
FTUS41 KALY 241120
TAFPOU
TAF
KPOU 241120Z 2412/2512 29008KT P6SM BKN050
      TEMPO 2412/2414 29008G18KT
     FM241400 30012G24KT P6SM BKN060
     FM250100 28007KT P6SM SCT050=



000
FTUS41 KALY 241120
TAFALB
TAF
KALB 241120Z 2412/2512 29012G22KT P6SM SCT035 BKN080
     FM241300 29015G25KT P6SM VCSH BKN060
     FM250300 29010KT P6SM SCT050=



000
FTUS41 KALY 241120
TAFALB
TAF
KALB 241120Z 2412/2512 29012G22KT P6SM SCT035 BKN080
     FM241300 29015G25KT P6SM VCSH BKN060
     FM250300 29010KT P6SM SCT050=



000
FTUS41 KALY 241120
TAFGFL
TAF
KGFL 241120Z 2412/2512 25008KT P6SM BKN045
     FM241300 29012G20KT P6SM BKN060
     FM242300 28007KT P6SM BKN050
     FM250800 25004KT P6SM SCT050=



000
FTUS41 KALY 241120
TAFPOU
TAF
KPOU 241120Z 2412/2512 29008KT P6SM BKN050
      TEMPO 2412/2414 29008G18KT
     FM241400 30012G24KT P6SM BKN060
     FM250100 28007KT P6SM SCT050=



000
FTUS41 KALY 240523
TAFPOU
TAF
KPOU 240523Z 2406/2506 28008KT P6SM BKN050
     FM241300 30012G20KT P6SM BKN070
     FM242300 30007KT P6SM BKN060=



000
FTUS41 KALY 240523
TAFALB
TAF
KALB 240523Z 2406/2506 29012G22KT P6SM SCT035 BKN080
     FM241300 29015G25KT P6SM BKN060
     FM250200 29010KT P6SM BKN050=



000
FTUS41 KALY 240523
TAFGFL
TAF
KGFL 240523Z 2406/2506 25008KT P6SM BKN045
     FM241300 29012G20KT P6SM BKN060
     FM242300 28007KT P6SM BKN050=



000
FTUS41 KALY 240523
TAFPOU
TAF
KPOU 240523Z 2406/2506 28008KT P6SM BKN050
     FM241300 30012G20KT P6SM BKN070
     FM242300 30007KT P6SM BKN060=



000
FTUS41 KALY 240523
TAFALB
TAF
KALB 240523Z 2406/2506 29012G22KT P6SM SCT035 BKN080
     FM241300 29015G25KT P6SM BKN060
     FM250200 29010KT P6SM BKN050=



000
FTUS41 KALY 240523
TAFGFL
TAF
KGFL 240523Z 2406/2506 25008KT P6SM BKN045
     FM241300 29012G20KT P6SM BKN060
     FM242300 28007KT P6SM BKN050=



000
FTUS41 KALY 240329 AAA
TAFPOU
TAF AMD
KPOU 240329Z 2403/2424 28010G17KT P6SM BKN060
     FM240700 28006KT P6SM SCT060 BKN100
     FM241300 29012G20KT P6SM SCT060 BKN120=



000
FTUS41 KALY 232325
TAFALB
TAF
KALB 232325Z 2400/2424 29013G22KT P6SM VCSH SCT035 BKN050 BKN090
     FM240400 29012G20KT P6SM BKN050
     FM241200 30015G25KT P6SM BKN060=



000
FTUS41 KALY 232325
TAFGFL
TAF
KGFL 232325Z 2400/2424 28010G17KT P6SM VCSH BKN050 OVC090
     FM240400 25008KT P6SM BKN050
     FM241300 29012G20KT P6SM BKN060=



000
FTUS41 KALY 232325
TAFPOU
TAF
KPOU 232325Z 2400/2424 29010G17KT P6SM BKN060
     FM240400 28006KT P6SM SCT060 BKN100
     FM241300 29012G20KT P6SM SCT060 BKN120=



000
FTUS41 KALY 232325
TAFALB
TAF
KALB 232325Z 2400/2424 29013G22KT P6SM VCSH SCT035 BKN050 BKN090
     FM240400 29012G20KT P6SM BKN050
     FM241200 30015G25KT P6SM BKN060=



000
FTUS41 KALY 232325
TAFPOU
TAF
KPOU 232325Z 2400/2424 29010G17KT P6SM BKN060
     FM240400 28006KT P6SM SCT060 BKN100
     FM241300 29012G20KT P6SM SCT060 BKN120=



000
FTUS41 KALY 232325
TAFGFL
TAF
KGFL 232325Z 2400/2424 28010G17KT P6SM VCSH BKN050 OVC090
     FM240400 25008KT P6SM BKN050
     FM241300 29012G20KT P6SM BKN060=



000
FTUS41 KALY 231738
TAFPOU
TAF
KPOU 231738Z 2318/2418 28012G20KT P6SM BKN060
     FM232000 29015G25KT P6SM VCSH OVC060
     FM240000 30011G18KT P6SM BKN060
     FM240400 29005KT P6SM SCT060 BKN120
     FM241300 29012G20KT P6SM OVC120=



000
FTUS41 KALY 231738
TAFALB
TAF
KALB 231738Z 2318/2418 28019G30KT P6SM VCSH SCT030 BKN045
      TEMPO 2318/2320 4SM -SHSN BR BKN030
     FM232000 28018G28KT P6SM VCSH BKN045
     FM232300 29015G25KT P6SM VCSH OVC045
     FM240400 28014G23KT P6SM VCSH OVC060
     FM241200 30015G25KT P6SM BKN060=



000
FTUS41 KALY 231738
TAFGFL
TAF
KGFL 231738Z 2318/2418 29014G24KT P6SM VCSH OVC070
      TEMPO 2318/2320 3SM -SHSN BR BKN035
     FM232000 27013G23KT P6SM VCSH SCT035 OVC050
     FM240000 25008KT P6SM VCSH BKN050
     FM240400 24005KT P6SM OVC045
     FM241300 29012G20KT P6SM SCT045 OVC090=



000
FTUS41 KALY 231708 AAA
TAFGFL
TAF AMD
KGFL 231708Z 2317/2412 29010G16KT P6SM OVC070
     FM231900 26014G24KT P6SM VCSH BKN060
     FM232300 24007KT P6SM BKN050=



000
FTUS41 KALY 231708 AAA
TAFGFL
TAF AMD
KGFL 231708Z 2317/2412 29010G16KT P6SM OVC070
     FM231900 26014G24KT P6SM VCSH BKN060
     FM232300 24007KT P6SM BKN050=



000
FTUS41 KALY 231706 AAB
TAFALB
TAF AMD
KALB 231706Z 2317/2412 29017G27KT P6SM VCSH SCT030 BKN050
      TEMPO 2317/2318 3SM -SHSN BR BKN030
     FM231800 28018G28KT P6SM VCSH BKN050
     FM232200 29013G23KT P6SM BKN050=



000
FTUS41 KALY 231706 AAB
TAFALB
TAF AMD
KALB 231706Z 2317/2412 29017G27KT P6SM VCSH SCT030 BKN050
      TEMPO 2317/2318 3SM -SHSN BR BKN030
     FM231800 28018G28KT P6SM VCSH BKN050
     FM232200 29013G23KT P6SM BKN050=



000
FTUS41 KALY 231528 AAA
TAFALB
TAF AMD
KALB 231528Z 2315/2412 29014G23KT P6SM VCSH SCT040 BKN060
     FM231800 28018G28KT P6SM VCSH BKN050
     FM232200 29013G23KT P6SM BKN050=



000
FTUS41 KALY 231136
TAFALB
TAF
KALB 231136Z 2312/2412 28014G23KT P6SM VCSH SCT050 SCT150 BKN250
      TEMPO 2314/2316 BKN050
     FM231600 28018G28KT P6SM VCSH BKN050
     FM232200 29013G23KT P6SM BKN050=



000
FTUS41 KALY 231136
TAFPOU
TAF
KPOU 231136Z 2312/2412 26013G22KT P6SM FEW070
     FM231400 27012G20KT P6SM BKN070
     FM231700 28015G25KT P6SM BKN060
     FM232300 29007KT P6SM SCT060=



000
FTUS41 KALY 231136
TAFGFL
TAF
KGFL 231136Z 2312/2412 20008KT P6SM OVC100
     FM231400 25012G20KT P6SM BKN070
     FM231700 26014G24KT P6SM VCSH BKN060
     FM232300 24007KT P6SM BKN050=



000
FTUS41 KALY 231005 AAB
TAFALB
TAF AMD
KALB 231005Z 2310/2406 27013G23KT P6SM VCSH FEW025 BKN050
     FM231600 28018G28KT P6SM VCSH BKN060
     FM232200 29013G23KT P6SM BKN050=



000
FTUS41 KALY 230802 AAA
TAFGFL
TAF AMD
KGFL 230802Z 2308/2406 22007KT P6SM SCT100
     FM231000 24010KT P6SM SCT040 BKN080
     FM231300 25012G20KT P6SM BKN050
     FM231700 26014G24KT P6SM BKN060
     FM232300 24007KT P6SM BKN050=



000
FTUS41 KALY 230658 AAA
TAFALB
TAF AMD
KALB 230658Z 2307/2406 27010KT P6SM VCSH SCT030 BKN060
      TEMPO 2307/2309 BKN030 BKN060
     FM231100 27013G23KT P6SM BKN050
     FM231600 28018G28KT P6SM BKN060
     FM232200 29013G23KT P6SM BKN050=



000
FTUS41 KALY 230658 AAA
TAFALB
TAF AMD
KALB 230658Z 2307/2406 27010KT P6SM VCSH SCT030 BKN060
      TEMPO 2307/2309 BKN030 BKN060
     FM231100 27013G23KT P6SM BKN050
     FM231600 28018G28KT P6SM BKN060
     FM232200 29013G23KT P6SM BKN050=



000
FTUS41 KALY 230522
TAFGFL
TAF
KGFL 230522Z 2306/2406 22006KT P6SM VCSH BKN035 OVC050
     FM230800 24010G15KT P6SM VCSH BKN045
     FM231300 25012G20KT P6SM BKN050
     FM231700 26014G24KT P6SM BKN060
     FM232300 24007KT P6SM BKN050=



000
FTUS41 KALY 230522
TAFALB
TAF
KALB 230522Z 2306/2406 27010KT P6SM VCSH SCT035 BKN060
     FM231100 27013G23KT P6SM BKN050
     FM231600 28018G28KT P6SM BKN060
     FM232200 29013G23KT P6SM BKN050=



000
FTUS41 KALY 230522
TAFPOU
TAF
KPOU 230522Z 2306/2406 26008KT P6SM BKN070
     FM231300 27012G20KT P6SM BKN050
     FM231700 28015G25KT P6SM BKN070
     FM232300 29007KT P6SM BKN060=



000
FTUS41 KALY 230522
TAFALB
TAF
KALB 230522Z 2306/2406 27010KT P6SM VCSH SCT035 BKN060
     FM231100 27013G23KT P6SM BKN050
     FM231600 28018G28KT P6SM BKN060
     FM232200 29013G23KT P6SM BKN050=



000
FTUS41 KALY 230522
TAFGFL
TAF
KGFL 230522Z 2306/2406 22006KT P6SM VCSH BKN035 OVC050
     FM230800 24010G15KT P6SM VCSH BKN045
     FM231300 25012G20KT P6SM BKN050
     FM231700 26014G24KT P6SM BKN060
     FM232300 24007KT P6SM BKN050=



000
FTUS41 KALY 230522
TAFPOU
TAF
KPOU 230522Z 2306/2406 26008KT P6SM BKN070
     FM231300 27012G20KT P6SM BKN050
     FM231700 28015G25KT P6SM BKN070
     FM232300 29007KT P6SM BKN060=



000
FTUS41 KALY 230408 AAB
TAFPOU
TAF AMD
KPOU 230408Z 2304/2324 24006KT P6SM VCSH BKN045
      TEMPO 2304/2305 27015G25KT 6SM -SHRA BR OVC035
     FM230700 29008KT P6SM BKN035 OVC050
     FM231300 28010G20KT P6SM BKN050
     FM231600 28013G23KT P6SM BKN050 BKN100=



000
FTUS41 KALY 230105 AAA
TAFPOU
TAF AMD
KPOU 230105Z 2301/2324 27010G22KT P6SM SCT035 SCT060 BKN100
      TEMPO 2301/2302 4SM -SHRA BR BKN015 OVC035
     FM230200 27006KT P6SM VCSH SCT035 OVC060
     FM230700 29008KT P6SM BKN035 OVC050
     FM231300 28010G20KT P6SM BKN050
     FM231600 28013G23KT P6SM BKN050 BKN100=



000
FTUS41 KALY 230105 AAA
TAFPOU
TAF AMD
KPOU 230105Z 2301/2324 27010G22KT P6SM SCT035 SCT060 BKN100
      TEMPO 2301/2302 4SM -SHRA BR BKN015 OVC035
     FM230200 27006KT P6SM VCSH SCT035 OVC060
     FM230700 29008KT P6SM BKN035 OVC050
     FM231300 28010G20KT P6SM BKN050
     FM231600 28013G23KT P6SM BKN050 BKN100=



000
FTUS41 KALY 230058 AAA
TAFGFL
TAF AMD
KGFL 230058Z 2301/2324 31012G18KT P6SM SCT015 BKN035 OVC050
      TEMPO 2301/2302 3SM -SHRA BR BKN015 OVC035
     FM230200 30006KT P6SM VCSH SCT025 OVC035
     FM230800 24008KT P6SM BKN035 OVC050
     FM231300 25012G20KT P6SM BKN050
     FM231600 26014G24KT P6SM BKN050 BKN100=



000
FTUS41 KALY 230058 AAA
TAFGFL
TAF AMD
KGFL 230058Z 2301/2324 31012G18KT P6SM SCT015 BKN035 OVC050
      TEMPO 2301/2302 3SM -SHRA BR BKN015 OVC035
     FM230200 30006KT P6SM VCSH SCT025 OVC035
     FM230800 24008KT P6SM BKN035 OVC050
     FM231300 25012G20KT P6SM BKN050
     FM231600 26014G24KT P6SM BKN050 BKN100=



000
FTUS41 KALY 230057 AAA
TAFALB
TAF AMD
KALB 230057Z 2301/2324 30015G25KT P6SM SCT015 OVC025
      TEMPO 2301/2302 4SM -SHRA BR BKN015 OVC025
     FM230200 27008KT P6SM VCSH SCT025 OVC035
     FM230500 29010KT P6SM VCSH BKN035 OVC050
     FM231100 28013G23KT P6SM BKN050
     FM231500 28018G28KT P6SM BKN050 BKN100=



000
FTUS41 KALY 222355
TAFALB
TAF
KALB 222355Z 2300/2324 VRB03KT P6SM SCT015 BKN035 OVC050
      TEMPO 2300/2303 3SM -SHRA BR BKN015 OVC035
     FM230300 27006KT P6SM VCSH SCT025 OVC035
     FM230500 29010KT P6SM VCSH BKN035 OVC050
     FM231100 28013G23KT P6SM BKN050
     FM231500 28018G28KT P6SM BKN050 BKN100=



000
FTUS41 KALY 222355
TAFPOU
TAF
KPOU 222355Z 2300/2324 VRB03KT P6SM SCT035 SCT060 BKN100
      TEMPO 2302/2304 4SM -SHRA BR BKN015 OVC035
     FM230400 27006KT P6SM VCSH SCT035 OVC060
     FM230700 29008KT P6SM BKN035 OVC050
     FM231300 28010G20KT P6SM BKN050
     FM231600 28013G23KT P6SM BKN050 BKN100=



000
FTUS41 KALY 222355
TAFGFL
TAF
KGFL 222355Z 2300/2324 VRB03KT P6SM SCT015 BKN035 OVC050
      TEMPO 2300/2303 3SM -SHRA BR BKN015 OVC035
     FM230300 30005KT P6SM VCSH SCT025 OVC035
     FM230800 24008KT P6SM BKN035 OVC050
     FM231300 25012G20KT P6SM BKN050
     FM231600 26014G24KT P6SM BKN050 BKN100=



000
FTUS41 KALY 222355
TAFPOU
TAF
KPOU 222355Z 2300/2324 VRB03KT P6SM SCT035 SCT060 BKN100
      TEMPO 2302/2304 4SM -SHRA BR BKN015 OVC035
     FM230400 27006KT P6SM VCSH SCT035 OVC060
     FM230700 29008KT P6SM BKN035 OVC050
     FM231300 28010G20KT P6SM BKN050
     FM231600 28013G23KT P6SM BKN050 BKN100=



000
FTUS41 KALY 222355
TAFALB
TAF
KALB 222355Z 2300/2324 VRB03KT P6SM SCT015 BKN035 OVC050
      TEMPO 2300/2303 3SM -SHRA BR BKN015 OVC035
     FM230300 27006KT P6SM VCSH SCT025 OVC035
     FM230500 29010KT P6SM VCSH BKN035 OVC050
     FM231100 28013G23KT P6SM BKN050
     FM231500 28018G28KT P6SM BKN050 BKN100=



000
FTUS41 KALY 222355
TAFGFL
TAF
KGFL 222355Z 2300/2324 VRB03KT P6SM SCT015 BKN035 OVC050
      TEMPO 2300/2303 3SM -SHRA BR BKN015 OVC035
     FM230300 30005KT P6SM VCSH SCT025 OVC035
     FM230800 24008KT P6SM BKN035 OVC050
     FM231300 25012G20KT P6SM BKN050
     FM231600 26014G24KT P6SM BKN050 BKN100=



000
FTUS41 KALY 222302 AAA
TAFGFL
TAF AMD
KGFL 222302Z 2223/2318 VRB03KT P6SM SCT015 OVC045
      TEMPO 2223/2301 4SM -SHRA BKN015 OVC035
     FM230100 27008KT P6SM BKN035
     FM231400 27010G20KT P6SM BKN050=



000
FTUS41 KALY 222302 AAA
TAFGFL
TAF AMD
KGFL 222302Z 2223/2318 VRB03KT P6SM SCT015 OVC045
      TEMPO 2223/2301 4SM -SHRA BKN015 OVC035
     FM230100 27008KT P6SM BKN035
     FM231400 27010G20KT P6SM BKN050=



000
FTUS41 KALY 222216 AAC
TAFPOU
TAF AMD
KPOU 222216Z 2222/2318 VRB03KT P6SM VCSH SCT050 OVC100
     FM230100 27008KT P6SM SCT040 BKN100
     FM230400 29005KT P6SM SCT040
     FM231400 29010G20KT P6SM BKN060=



000
FTUS41 KALY 222216 AAC
TAFPOU
TAF AMD
KPOU 222216Z 2222/2318 VRB03KT P6SM VCSH SCT050 OVC100
     FM230100 27008KT P6SM SCT040 BKN100
     FM230400 29005KT P6SM SCT040
     FM231400 29010G20KT P6SM BKN060=



000
FTUS41 KALY 222212 AAA
TAFALB
TAF AMD
KALB 222212Z 2222/2318 35005KT P6SM BKN015 OVC050
      TEMPO 2222/2224 4SM -SHRA BR BKN006 OVC015
     FM230000 27008KT P6SM VCSH OVC040
     FM230400 29010KT P6SM VCSH BKN035
     FM231300 29015G25KT P6SM BKN060=



000
FTUS41 KALY 222023 AAB
TAFPOU
TAF AMD
KPOU 222023Z 2220/2318 23012G20KT P6SM SCT015 BKN035 OVC070
      TEMPO 2220/2223 27015G30KT 3SM SHRA BKN015 OVC035
     FM230000 27008KT P6SM VCSH OVC040
     FM230400 29005KT P6SM SCT040
     FM231400 29010G20KT P6SM BKN060=



000
FTUS41 KALY 222023 AAB
TAFPOU
TAF AMD
KPOU 222023Z 2220/2318 23012G20KT P6SM SCT015 BKN035 OVC070
      TEMPO 2220/2223 27015G30KT 3SM SHRA BKN015 OVC035
     FM230000 27008KT P6SM VCSH OVC040
     FM230400 29005KT P6SM SCT040
     FM231400 29010G20KT P6SM BKN060=



000
FTUS41 KALY 222001 AAA
TAFPOU
TAF AMD
KPOU 222001Z 2220/2318 19010G20KT P6SM VCSH FEW030 BKN100
      TEMPO 2220/2223 27015G30KT 3SM SHRA OVC035
     FM230000 27008KT P6SM VCSH OVC040
     FM230400 29005KT P6SM SCT040
     FM231400 29010G20KT P6SM BKN060=



000
FTUS41 KALY 222001 AAA
TAFPOU
TAF AMD
KPOU 222001Z 2220/2318 19010G20KT P6SM VCSH FEW030 BKN100
      TEMPO 2220/2223 27015G30KT 3SM SHRA OVC035
     FM230000 27008KT P6SM VCSH OVC040
     FM230400 29005KT P6SM SCT040
     FM231400 29010G20KT P6SM BKN060=



000
FTUS41 KALY 221739 CCA
TAFPOU
TAF COR
KPOU 221739Z 2218/2318 19010G20KT P6SM VCSH FEW030 BKN100
      TEMPO 2219/2223 19010KT 3SM SHRA OVC035
     FM230000 27008KT P6SM VCSH OVC040
     FM230400 29005KT P6SM SCT040
     FM231400 29010G20KT P6SM BKN060=



000
FTUS41 KALY 221720
TAFPOU
TAF
KPOU 221720Z 2218/2318 19010KT P6SM VCSH FEW030 BKN100
      TEMPO 2219/2223 19010G20KT 3SM SHRA OVC035
     FM230000 27008KT P6SM VCSH OVC040
     FM230400 29005KT P6SM SCT040
     FM231400 29010G20KT P6SM BKN060=



000
FTUS41 KALY 221720
TAFALB
TAF
KALB 221720Z 2218/2318 19010KT P6SM VCSH SCT030 OVC060
      TEMPO 2218/2222 19010G20KT 3SM SHRA OVC030
     FM222300 27008KT P6SM VCSH OVC040
     FM230400 29010KT P6SM VCSH BKN035
     FM231300 29015G25KT P6SM BKN060=



000
FTUS41 KALY 221720
TAFGFL
TAF
KGFL 221720Z 2218/2318 19008KT 6SM -SHRA OVC045
      TEMPO 2218/2222 3SM SHRA OVC030
     FM222200 VRB03KT P6SM VCSH OVC035
     FM230300 27008KT P6SM BKN035
     FM231400 27010G20KT P6SM BKN050=



000
FTUS41 KALY 221720
TAFALB
TAF
KALB 221720Z 2218/2318 19010KT P6SM VCSH SCT030 OVC060
      TEMPO 2218/2222 19010G20KT 3SM SHRA OVC030
     FM222300 27008KT P6SM VCSH OVC040
     FM230400 29010KT P6SM VCSH BKN035
     FM231300 29015G25KT P6SM BKN060=



000
FTUS41 KALY 221720
TAFGFL
TAF
KGFL 221720Z 2218/2318 19008KT 6SM -SHRA OVC045
      TEMPO 2218/2222 3SM SHRA OVC030
     FM222200 VRB03KT P6SM VCSH OVC035
     FM230300 27008KT P6SM BKN035
     FM231400 27010G20KT P6SM BKN050=



000
FTUS41 KALY 221720
TAFPOU
TAF
KPOU 221720Z 2218/2318 19010KT P6SM VCSH FEW030 BKN100
      TEMPO 2219/2223 19010G20KT 3SM SHRA OVC035
     FM230000 27008KT P6SM VCSH OVC040
     FM230400 29005KT P6SM SCT040
     FM231400 29010G20KT P6SM BKN060=



000
FTUS41 KALY 221556 AAB
TAFALB
TAF AMD
KALB 221556Z 2216/2312 17010G20KT P6SM VCSH SCT030 OVC060
      TEMPO 2216/2217 19020G30KT
     FM221700 17008KT 4SM -SHRA BR BKN025 OVC050
     FM222200 28007KT P6SM VCSH SCT035 BKN050=



000
FTUS41 KALY 221401 AAA
TAFPOU
TAF AMD
KPOU 221401Z 2214/2312 17008G18KT P6SM SCT100
     FM221500 20008G18KT P6SM VCSH SCT050 BKN080
     FM221800 22012G18KT 3SM SHRA BR BKN025 OVC050
     FM222200 27010KT P6SM VCSH SCT035 BKN050
     FM230700 26005KT 6SM BR SCT060=



000
FTUS41 KALY 221400 AAA
TAFALB
TAF AMD
KALB 221400Z 2214/2312 17010G20KT P6SM SCT080 BKN250
     FM221500 17010G20KT P6SM VCSH BKN060
     FM221700 17008KT 4SM -SHRA BR BKN025 OVC050
     FM222200 28007KT P6SM VCSH SCT035 BKN050=



000
FTUS41 KALY 221159 CCA
TAFGFL
TAF COR
KGFL 221159Z 2212/2312 00000KT P6SM SCT100
      TEMPO 2212/2213 3SM BR SCT002
     FM221300 19006KT P6SM VCSH BKN060
     FM221700 VRB04KT 6SM -SHRA BR BKN025 OVC050
     FM222200 24006KT P6SM VCSH SCT035 OVC050
     FM230300 22004KT 6SM BR BKN040=



000
FTUS41 KALY 221159 CCA
TAFGFL
TAF COR
KGFL 221159Z 2212/2312 00000KT P6SM SCT100
      TEMPO 2212/2213 3SM BR SCT002
     FM221300 19006KT P6SM VCSH BKN060
     FM221700 VRB04KT 6SM -SHRA BR BKN025 OVC050
     FM222200 24006KT P6SM VCSH SCT035 OVC050
     FM230300 22004KT 6SM BR BKN040=



000
FTUS41 KALY 221138
TAFGFL
TAF
KGFL 221138Z 2212/2312 00000KT 1SM BR BKN002
      TEMPO 2212/2213 VRB03KT 6SM BR SCT002
     FM221300 19006KT P6SM VCSH BKN060
     FM221700 VRB04KT 6SM -SHRA BR BKN025 OVC050
     FM222200 24006KT P6SM VCSH SCT035 OVC050
     FM230300 22004KT 6SM BR BKN040=



000
FTUS41 KALY 221138
TAFALB
TAF
KALB 221138Z 2212/2312 17008KT P6SM SCT080 BKN250
     FM221500 17010G18KT P6SM VCSH BKN060
     FM221700 17008KT 4SM -SHRA BR BKN025 OVC050
     FM222200 28007KT P6SM VCSH SCT035 BKN050=



000
FTUS41 KALY 221138
TAFPOU
TAF
KPOU 221138Z 2212/2312 VRB03KT P6SM BKN100
     FM221500 21008KT P6SM VCSH SCT050 BKN080
     FM221800 22012G18KT 3SM SHRA BR BKN025 OVC050
     FM222200 27010KT P6SM VCSH SCT035 BKN050
     FM230700 26005KT 6SM BR SCT060=



000
FTUS41 KALY 221138
TAFGFL
TAF
KGFL 221138Z 2212/2312 00000KT 1SM BR BKN002
      TEMPO 2212/2213 VRB03KT 6SM BR SCT002
     FM221300 19006KT P6SM VCSH BKN060
     FM221700 VRB04KT 6SM -SHRA BR BKN025 OVC050
     FM222200 24006KT P6SM VCSH SCT035 OVC050
     FM230300 22004KT 6SM BR BKN040=



000
FTUS41 KALY 221138
TAFALB
TAF
KALB 221138Z 2212/2312 17008KT P6SM SCT080 BKN250
     FM221500 17010G18KT P6SM VCSH BKN060
     FM221700 17008KT 4SM -SHRA BR BKN025 OVC050
     FM222200 28007KT P6SM VCSH SCT035 BKN050=



000
FTUS41 KALY 221138
TAFPOU
TAF
KPOU 221138Z 2212/2312 VRB03KT P6SM BKN100
     FM221500 21008KT P6SM VCSH SCT050 BKN080
     FM221800 22012G18KT 3SM SHRA BR BKN025 OVC050
     FM222200 27010KT P6SM VCSH SCT035 BKN050
     FM230700 26005KT 6SM BR SCT060=



000
FTUS41 KALY 221106 AAD
TAFGFL
TAF AMD
KGFL 221106Z 2211/2306 VRB03KT 3SM BR FEW002 SCT100
      TEMPO 2211/2212 1/4SM FG VV001
     FM221300 19006KT P6SM VCSH BKN050
     FM221700 VRB04KT 6SM -SHRA BR BKN025 OVC050
     FM222200 24006KT P6SM VCSH SCT035 OVC050=



000
FTUS41 KALY 220956 AAA
TAFALB
TAF AMD
KALB 220956Z 2210/2306 VRB03KT P6SM SCT100
     FM221300 17008KT P6SM BKN080
     FM221500 17010G15KT P6SM VCSH BKN060
     FM221700 17008KT 4SM -SHRA BR BKN025 OVC050
     FM222200 28007KT P6SM VCSH SCT035 OVC050=



000
FTUS41 KALY 220936 AAC
TAFGFL
TAF AMD
KGFL 220936Z 2210/2306 VRB03KT 3SM BR FEW002 SCT100
      TEMPO 2210/2211 1/4SM FG VV001
     FM221300 19006KT P6SM VCSH BKN050
     FM221700 VRB04KT 6SM -SHRA BR BKN025 OVC050
     FM222200 24006KT P6SM VCSH SCT035 OVC050=



000
FTUS41 KALY 220830 AAB
TAFGFL
TAF AMD
KGFL 220830Z 2209/2306 VRB03KT P6SM SCT100
      TEMPO 2209/2211 1/2SM FG BKN002
     FM221500 19006KT P6SM VCSH BKN050
     FM221700 VRB04KT 6SM -SHRA BR BKN025 OVC050
     FM222200 24006KT P6SM VCSH SCT035 OVC050=



000
FTUS41 KALY 220757 AAA
TAFGFL
TAF AMD
KGFL 220757Z 2208/2306 VRB03KT P6SM SCT100
      TEMPO 2208/2210 2SM BR
     FM221500 19006KT P6SM VCSH BKN050
     FM221700 VRB04KT 6SM -SHRA BR BKN025 OVC050
     FM222200 24006KT P6SM VCSH SCT035 OVC050=



000
FTUS41 KALY 220757 AAA
TAFGFL
TAF AMD
KGFL 220757Z 2208/2306 VRB03KT P6SM SCT100
      TEMPO 2208/2210 2SM BR
     FM221500 19006KT P6SM VCSH BKN050
     FM221700 VRB04KT 6SM -SHRA BR BKN025 OVC050
     FM222200 24006KT P6SM VCSH SCT035 OVC050=



    US Dept of Commerce
    National Oceanic and Atmospheric Administration
    National Weather Service
    1325 East West Highway
    Silver Spring, MD 20910
    Page Author: NWS Internet Services Team
Disclaimer
Information Quality
Credits
Glossary
Privacy Policy
Freedom of Information Act (FOIA)
About Us
Career Opportunities